createdAt,value
2018-03-30T00:01:55.229Z,4.67
2018-03-30T00:04:26.208Z,4.60
2018-03-30T00:07:12.102Z,4.57
2018-03-30T00:09:55.282Z,4.40
2018-03-30T00:12:26.253Z,4.50
2018-03-30T00:14:57.236Z,5.63
2018-03-30T00:17:28.211Z,5.10
2018-03-30T00:19:59.232Z,5.10
2018-03-30T00:22:30.223Z,5.00
2018-03-30T00:25:01.202Z,5.50
2018-03-30T00:27:32.198Z,5.47
2018-03-30T00:30:03.220Z,6.40
2018-03-30T00:32:34.228Z,5.50
2018-03-30T00:35:05.236Z,5.60
2018-03-30T00:37:43.287Z,6.10
2018-03-30T00:40:14.303Z,7.10
2018-03-30T00:42:45.284Z,6.70
2018-03-30T00:45:16.299Z,6.53
2018-03-30T00:47:47.293Z,6.47
2018-03-30T00:50:18.263Z,6.83
2018-03-30T00:52:49.225Z,5.67
2018-03-30T00:55:20.234Z,6.57
2018-03-30T00:57:51.183Z,5.43
2018-03-30T01:00:22.158Z,5.90
2018-03-30T01:02:53.156Z,5.73
2018-03-30T01:05:24.200Z,5.50
2018-03-30T01:07:55.177Z,5.70
2018-03-30T01:10:26.186Z,5.57
2018-03-30T01:12:57.181Z,5.73
2018-03-30T01:15:28.154Z,6.03
2018-03-30T01:17:59.143Z,5.87
2018-03-30T01:20:30.140Z,5.80
2018-03-30T01:23:01.179Z,6.30
2018-03-30T01:25:32.202Z,6.23
2018-03-30T01:28:03.240Z,5.63
2018-03-30T01:30:34.244Z,5.87
2018-03-30T01:33:05.252Z,6.03
2018-03-30T01:35:36.237Z,6.67
2018-03-30T01:38:07.215Z,6.17
2018-03-30T01:40:38.169Z,4.87
2018-03-30T01:43:09.112Z,4.97
2018-03-30T01:45:40.113Z,4.83
2018-03-30T01:48:11.103Z,4.67
2018-03-30T01:50:42.096Z,4.27
2018-03-30T01:53:13.131Z,4.07
2018-03-30T01:55:44.187Z,4.53
2018-03-30T01:58:15.168Z,5.37
2018-03-30T02:00:46.185Z,5.20
2018-03-30T02:03:17.146Z,5.40
2018-03-30T02:05:48.142Z,5.13
2018-03-30T02:08:19.121Z,5.40
2018-03-30T02:10:50.186Z,5.23
2018-03-30T02:13:21.122Z,5.73
2018-03-30T02:15:52.151Z,5.40
2018-03-30T02:18:23.173Z,5.50
2018-03-30T02:20:54.173Z,5.27
2018-03-30T02:23:30.104Z,5.43
2018-03-30T02:26:01.061Z,6.00
2018-03-30T02:28:32.058Z,5.43
2018-03-30T02:31:03.044Z,6.43
2018-03-30T02:33:34.010Z,5.57
2018-03-30T02:36:04.997Z,6.47
2018-03-30T02:38:36.020Z,6.40
2018-03-30T02:41:06.988Z,8.03
2018-03-30T02:43:37.994Z,8.40
2018-03-30T02:46:08.996Z,8.87
2018-03-30T02:48:40.028Z,8.60
2018-03-30T02:51:10.996Z,9.37
2018-03-30T02:53:42.010Z,9.80
2018-03-30T02:56:13.007Z,9.63
2018-03-30T02:58:44.049Z,11.03
2018-03-30T03:01:15.090Z,11.00
2018-03-30T03:03:46.082Z,12.33
2018-03-30T03:06:17.080Z,12.73
2018-03-30T03:08:48.106Z,12.67
2018-03-30T03:11:19.113Z,12.53
2018-03-30T03:13:50.073Z,13.63
2018-03-30T03:16:21.044Z,12.80
2018-03-30T03:18:52.012Z,14.07
2018-03-30T03:21:22.997Z,12.53
2018-03-30T03:23:53.989Z,12.57
2018-03-30T03:26:24.987Z,13.10
2018-03-30T03:28:55.955Z,14.27
2018-03-30T03:31:26.945Z,13.47
2018-03-30T03:33:57.873Z,12.47
2018-03-30T03:36:28.870Z,12.63
2018-03-30T03:38:59.854Z,13.63
2018-03-30T03:41:30.840Z,14.27
2018-03-30T03:44:01.851Z,14.27
2018-03-30T03:46:32.857Z,13.83
2018-03-30T03:49:03.881Z,14.73
2018-03-30T03:51:34.901Z,15.50
2018-03-30T03:54:05.888Z,17.20
2018-03-30T03:56:36.867Z,15.70
2018-03-30T03:59:07.863Z,16.70
2018-03-30T04:01:38.835Z,15.70
2018-03-30T04:04:09.829Z,17.80
2018-03-30T04:06:40.812Z,17.03
2018-03-30T04:09:11.811Z,17.53
2018-03-30T04:11:42.788Z,17.10
2018-03-30T04:14:13.782Z,17.13
2018-03-30T04:16:44.763Z,18.43
2018-03-30T04:19:15.813Z,18.63
2018-03-30T04:21:46.836Z,18.47
2018-03-30T04:24:17.897Z,19.42
2018-03-30T04:26:48.910Z,18.80
2018-03-30T04:29:19.958Z,20.10
2018-03-30T04:31:50.926Z,20.20
2018-03-30T04:34:21.939Z,20.63
2018-03-30T04:36:52.903Z,21.13
2018-03-30T04:39:23.913Z,21.80
2018-03-30T04:41:54.904Z,22.00
2018-03-30T04:44:25.888Z,22.47
2018-03-30T04:46:56.873Z,23.13
2018-03-30T04:49:27.869Z,22.47
2018-03-30T04:51:58.852Z,23.30
2018-03-30T04:54:29.854Z,22.20
2018-03-30T04:57:00.898Z,24.67
2018-03-30T04:59:31.874Z,22.80
2018-03-30T05:02:02.881Z,24.23
2018-03-30T05:04:33.904Z,25.67
2018-03-30T05:07:04.873Z,24.90
2018-03-30T05:09:35.856Z,25.30
2018-03-30T05:12:06.852Z,25.23
2018-03-30T05:14:37.865Z,23.97
2018-03-30T05:17:08.803Z,22.23
2018-03-30T05:19:39.838Z,24.20
2018-03-30T05:22:10.871Z,21.00
2018-03-30T05:24:41.849Z,20.83
2018-03-30T05:27:12.824Z,22.50
2018-03-30T05:29:43.831Z,23.40
2018-03-30T05:32:14.813Z,23.90
2018-03-30T05:34:45.783Z,23.40
2018-03-30T05:37:16.783Z,25.40
2018-03-30T05:39:47.825Z,24.20
2018-03-30T05:42:18.948Z,23.77
2018-03-30T05:44:49.903Z,24.07
2018-03-30T05:47:20.906Z,23.80
2018-03-30T05:49:51.878Z,22.17
2018-03-30T05:52:22.853Z,21.60
2018-03-30T05:54:53.824Z,20.70
2018-03-30T05:57:24.782Z,23.43
2018-03-30T05:59:55.795Z,20.77
2018-03-30T06:02:26.781Z,21.00
2018-03-30T06:04:57.766Z,22.60
2018-03-30T06:07:28.813Z,21.07
2018-03-30T06:09:59.799Z,21.20
2018-03-30T06:12:30.813Z,18.30
2018-03-30T06:15:01.780Z,17.20
2018-03-30T06:17:32.761Z,17.60
2018-03-30T06:20:03.780Z,15.03
2018-03-30T06:22:34.798Z,15.00
2018-03-30T06:25:05.789Z,13.90
2018-03-30T06:27:36.795Z,13.20
2018-03-30T06:30:07.794Z,12.93
2018-03-30T06:32:38.800Z,14.07
2018-03-30T06:35:09.767Z,12.97
2018-03-30T06:37:40.785Z,13.80
2018-03-30T06:40:11.788Z,12.47
2018-03-30T06:42:42.777Z,13.13
2018-03-30T06:45:13.785Z,13.20
2018-03-30T06:47:44.805Z,13.47
2018-03-30T06:50:15.816Z,12.30
2018-03-30T06:52:46.803Z,12.97
2018-03-30T06:55:17.778Z,12.87
2018-03-30T06:57:48.814Z,13.17
2018-03-30T07:00:19.775Z,13.23
2018-03-30T07:02:50.768Z,13.57
2018-03-30T07:05:21.751Z,12.77
2018-03-30T07:07:52.668Z,12.67
2018-03-30T07:10:23.651Z,12.77
2018-03-30T07:12:54.656Z,13.40
2018-03-30T07:15:25.626Z,12.80
2018-03-30T07:17:56.572Z,12.30
2018-03-30T07:20:27.553Z,13.00
2018-03-30T07:22:58.515Z,11.67
2018-03-30T07:25:29.534Z,10.97
2018-03-30T07:28:00.504Z,10.93
2018-03-30T07:30:31.511Z,10.97
2018-03-30T07:33:02.521Z,10.83
2018-03-30T07:35:33.528Z,10.10
2018-03-30T07:38:04.516Z,9.30
2018-03-30T07:40:35.447Z,10.70
2018-03-30T07:43:06.436Z,10.90
2018-03-30T07:45:37.436Z,11.47
2018-03-30T07:48:08.448Z,11.20
2018-03-30T07:50:39.409Z,10.47
2018-03-30T07:53:10.453Z,10.17
2018-03-30T07:55:41.444Z,10.20
2018-03-30T07:58:12.391Z,10.47
2018-03-30T08:00:43.343Z,9.83
2018-03-30T08:03:14.344Z,9.70
2018-03-30T08:05:45.316Z,9.57
2018-03-30T08:08:16.300Z,9.63
2018-03-30T08:10:47.264Z,8.97
2018-03-30T08:13:18.240Z,9.40
2018-03-30T08:15:49.219Z,10.00
2018-03-30T08:18:20.170Z,9.53
2018-03-30T08:20:51.284Z,9.47
2018-03-30T08:23:22.301Z,10.17
2018-03-30T08:25:53.348Z,10.13
2018-03-30T08:28:24.371Z,9.63
2018-03-30T08:30:55.372Z,9.43
2018-03-30T08:33:26.425Z,9.60
2018-03-30T08:35:57.421Z,10.13
2018-03-30T08:38:28.417Z,9.77
2018-03-30T08:40:59.379Z,10.03
2018-03-30T08:43:30.387Z,9.73
2018-03-30T08:46:01.411Z,10.57
2018-03-30T08:48:32.373Z,10.60
2018-03-30T08:51:03.392Z,10.67
2018-03-30T08:53:34.394Z,10.63
2018-03-30T08:56:05.395Z,10.20
2018-03-30T08:58:36.373Z,10.47
2018-03-30T09:01:07.409Z,11.63
2018-03-30T09:03:38.397Z,9.47
2018-03-30T09:06:09.396Z,10.53
2018-03-30T09:08:40.393Z,9.83
2018-03-30T09:11:11.401Z,10.73
2018-03-30T09:13:42.388Z,10.53
2018-03-30T09:16:13.392Z,9.43
2018-03-30T09:18:44.392Z,10.43
2018-03-30T09:21:15.378Z,10.57
2018-03-30T09:23:46.381Z,9.87
2018-03-30T09:26:17.345Z,10.17
2018-03-30T09:28:48.330Z,9.60
2018-03-30T09:31:19.303Z,9.70
2018-03-30T09:33:50.312Z,8.67
2018-03-30T09:36:21.297Z,8.47
2018-03-30T09:38:52.300Z,7.93
2018-03-30T09:41:23.276Z,8.10
2018-03-30T09:43:54.254Z,7.57
2018-03-30T09:46:25.270Z,7.70
2018-03-30T09:48:56.247Z,7.33
2018-03-30T09:51:27.254Z,6.23
2018-03-30T09:53:58.274Z,6.30
2018-03-30T09:56:29.323Z,6.40
2018-03-30T09:59:00.262Z,5.93
2018-03-30T10:01:31.252Z,5.75
2018-03-30T10:04:02.228Z,5.55
2018-03-30T10:06:33.237Z,5.47
2018-03-30T10:09:04.246Z,6.30
2018-03-30T10:11:35.227Z,5.85
2018-03-30T10:14:06.225Z,5.57
2018-03-30T10:16:37.190Z,5.13
2018-03-30T10:19:08.154Z,5.23
2018-03-30T10:21:39.157Z,5.23
2018-03-30T10:24:10.134Z,5.87
2018-03-30T10:26:41.113Z,5.23
2018-03-30T10:29:12.184Z,5.27
2018-03-30T10:31:43.204Z,5.70
2018-03-30T10:34:14.166Z,5.20
2018-03-30T10:36:45.192Z,5.43
2018-03-30T10:39:16.152Z,5.77
2018-03-30T10:41:47.091Z,5.27
2018-03-30T10:44:18.089Z,10.33
2018-03-30T10:46:49.097Z,7.23
2018-03-30T10:49:20.186Z,5.73
2018-03-30T10:51:51.162Z,6.30
2018-03-30T10:54:22.160Z,5.50
2018-03-30T10:56:53.105Z,4.87
2018-03-30T10:59:24.100Z,4.63
2018-03-30T11:01:55.079Z,5.60
2018-03-30T11:04:26.095Z,4.83
2018-03-30T11:06:57.059Z,5.10
2018-03-30T11:09:28.027Z,5.22
2018-03-30T11:11:58.993Z,4.73
2018-03-30T11:14:29.966Z,4.97
2018-03-30T11:17:00.934Z,4.73
2018-03-30T11:19:31.907Z,4.50
2018-03-30T11:22:02.902Z,4.63
2018-03-30T11:24:33.891Z,5.20
2018-03-30T11:27:04.883Z,5.47
2018-03-30T11:29:35.873Z,4.90
2018-03-30T11:32:06.852Z,4.53
2018-03-30T11:34:37.780Z,4.50
2018-03-30T11:37:08.777Z,4.37
2018-03-30T11:39:39.763Z,3.93
2018-03-30T11:42:10.814Z,4.00
2018-03-30T11:44:41.800Z,3.27
2018-03-30T11:47:12.767Z,3.60
2018-03-30T11:49:43.760Z,3.00
2018-03-30T11:52:14.769Z,3.27
2018-03-30T11:54:45.791Z,3.80
2018-03-30T11:57:16.764Z,3.63
2018-03-30T12:00:02.682Z,3.23
2018-03-30T12:02:33.672Z,3.00
2018-03-30T12:05:04.667Z,3.53
2018-03-30T12:07:35.691Z,3.60
2018-03-30T12:10:06.684Z,3.60
2018-03-30T12:12:37.683Z,3.00
2018-03-30T12:15:08.643Z,3.53
2018-03-30T12:17:39.668Z,3.67
2018-03-30T12:20:10.646Z,3.47
2018-03-30T12:22:41.619Z,3.10
2018-03-30T12:25:12.604Z,3.03
2018-03-30T12:27:43.601Z,2.93
2018-03-30T12:30:14.641Z,2.70
2018-03-30T12:32:45.654Z,3.20
2018-03-30T12:35:16.645Z,2.60
2018-03-30T12:37:47.672Z,2.03
2018-03-30T12:40:18.677Z,2.57
2018-03-30T12:42:49.652Z,2.10
2018-03-30T12:45:20.616Z,1.77
2018-03-30T12:47:51.557Z,1.70
2018-03-30T12:50:22.524Z,1.60
2018-03-30T12:52:53.491Z,1.67
2018-03-30T12:55:24.471Z,1.40
2018-03-30T12:57:55.488Z,1.40
2018-03-30T13:00:26.502Z,1.13
2018-03-30T13:02:57.443Z,1.67
2018-03-30T13:05:28.431Z,1.30
2018-03-30T13:07:59.430Z,1.20
2018-03-30T13:10:30.439Z,1.23
2018-03-30T13:13:01.387Z,1.00
2018-03-30T13:15:32.413Z,1.20
2018-03-30T13:18:03.381Z,1.40
2018-03-30T13:20:34.368Z,1.13
2018-03-30T13:23:05.370Z,1.40
2018-03-30T13:25:36.412Z,1.30
2018-03-30T13:28:07.362Z,1.10
2018-03-30T13:30:38.358Z,1.13
2018-03-30T13:33:09.355Z,1.10
2018-03-30T13:35:40.377Z,1.20
2018-03-30T13:38:11.358Z,1.43
2018-03-30T13:40:42.434Z,1.10
2018-03-30T13:43:13.401Z,1.30
2018-03-30T13:45:44.404Z,1.10
2018-03-30T13:48:15.408Z,1.17
2018-03-30T13:54:01.949Z,1.07
2018-03-30T13:56:36.676Z,1.17
2018-03-30T13:59:09.487Z,1.83
2018-03-30T14:01:51.306Z,0.90
2018-03-30T14:04:29.504Z,1.57
2018-03-30T14:10:09.318Z,1.10
2018-03-30T14:12:40.347Z,1.00
2018-03-30T14:15:12.195Z,1.13
2018-03-30T14:20:44.082Z,1.07
2018-03-30T14:23:18.811Z,1.23
2018-03-30T14:25:55.831Z,0.97
2018-03-30T14:28:27.748Z,0.93
2018-03-30T14:31:03.552Z,1.43
2018-03-30T14:33:34.544Z,1.13
2018-03-30T14:36:24.367Z,1.30
2018-03-30T14:39:06.298Z,1.10
2018-03-30T14:41:37.318Z,1.00
2018-03-30T14:44:09.289Z,1.00
2018-03-30T14:46:45.199Z,1.00
2018-03-30T14:52:24.979Z,1.10
2018-03-30T14:58:26.197Z,0.80
2018-03-30T15:04:00.925Z,1.00
2018-03-30T15:09:46.584Z,1.13
2018-03-30T15:12:24.551Z,1.20
2018-03-30T15:15:04.413Z,1.00
2018-03-30T15:17:47.204Z,1.27
2018-03-30T15:20:22.014Z,1.07
2018-03-30T15:22:55.815Z,1.10
2018-03-30T15:25:34.447Z,2.33
2018-03-30T15:28:06.398Z,1.27
2018-03-30T15:30:49.171Z,0.83
2018-03-30T15:36:21.573Z,1.20
2018-03-30T15:38:52.595Z,1.80
2018-03-30T15:41:23.577Z,1.10
2018-03-30T15:43:54.584Z,1.43
2018-03-30T15:46:28.426Z,1.20
2018-03-30T15:48:59.456Z,1.47
2018-03-30T15:51:42.986Z,1.30
2018-03-30T15:54:13.744Z,1.23
2018-03-30T15:56:46.655Z,1.13
2018-03-30T15:59:17.665Z,1.40
2018-03-30T16:01:48.693Z,1.10
2018-03-30T16:04:19.725Z,1.77
2018-03-30T16:06:50.711Z,1.60
2018-03-30T16:09:23.609Z,1.37
2018-03-30T16:11:56.449Z,1.20
2018-03-30T16:14:27.436Z,1.40
2018-03-30T16:16:58.507Z,1.37
2018-03-30T16:19:29.256Z,1.40
2018-03-30T16:22:00.047Z,1.07
2018-03-30T16:24:30.825Z,1.37
2018-03-30T16:27:01.619Z,1.53
2018-03-30T16:29:32.406Z,1.60
2018-03-30T16:32:03.151Z,1.57
2018-03-30T16:34:33.945Z,2.33
2018-03-30T16:37:04.701Z,1.70
2018-03-30T16:39:35.471Z,1.30
2018-03-30T16:42:06.229Z,1.30
2018-03-30T16:44:37.030Z,1.23
2018-03-30T16:47:07.833Z,1.00
2018-03-30T16:49:38.621Z,1.50
2018-03-30T16:52:09.412Z,1.00
2018-03-30T16:54:40.199Z,1.30
2018-03-30T16:57:10.996Z,1.10
2018-03-30T16:59:41.771Z,1.10
2018-03-30T17:02:12.557Z,1.60
2018-03-30T17:04:43.353Z,1.23
2018-03-30T17:07:14.141Z,1.93
2018-03-30T17:09:44.941Z,1.40
2018-03-30T17:12:15.712Z,1.57
2018-03-30T17:14:46.475Z,1.60
2018-03-30T17:17:17.253Z,1.30
2018-03-30T17:19:48.042Z,1.43
2018-03-30T17:22:18.805Z,1.10
2018-03-30T17:24:49.582Z,1.63
2018-03-30T17:27:20.357Z,1.60
2018-03-30T17:29:51.123Z,1.40
2018-03-30T17:32:21.898Z,1.67
2018-03-30T17:34:52.687Z,1.90
2018-03-30T17:37:23.465Z,2.10
2018-03-30T17:39:54.253Z,2.43
2018-03-30T17:42:25.037Z,2.13
2018-03-30T17:44:55.805Z,2.17
2018-03-30T17:47:26.627Z,1.83
2018-03-30T17:49:57.415Z,2.03
2018-03-30T17:52:28.185Z,2.50
2018-03-30T17:54:58.993Z,3.20
2018-03-30T17:57:29.756Z,3.23
2018-03-30T18:00:00.576Z,3.47
2018-03-30T18:02:31.365Z,2.90
2018-03-30T18:05:02.145Z,2.77
2018-03-30T18:07:32.937Z,3.00
2018-03-30T18:10:03.699Z,3.00
2018-03-30T18:12:34.545Z,3.00
2018-03-30T18:15:05.323Z,2.90
2018-03-30T18:17:36.087Z,3.40
2018-03-30T18:20:06.865Z,3.40
2018-03-30T18:22:37.661Z,3.70
2018-03-30T18:25:08.443Z,3.23
2018-03-30T18:27:39.224Z,3.73
2018-03-30T18:30:10.019Z,3.40
2018-03-30T18:32:40.767Z,2.73
2018-03-30T18:35:11.516Z,2.30
2018-03-30T18:37:42.279Z,3.00
2018-03-30T18:40:13.059Z,3.17
2018-03-30T18:42:43.930Z,2.93
2018-03-30T18:45:14.736Z,3.00
2018-03-30T18:47:45.506Z,2.50
2018-03-30T18:50:16.311Z,2.70
2018-03-30T18:52:47.093Z,2.97
2018-03-30T18:55:17.909Z,2.77
2018-03-30T18:57:48.713Z,2.67
2018-03-30T19:00:19.502Z,3.13
2018-03-30T19:02:50.294Z,2.90
2018-03-30T19:05:21.046Z,2.70
2018-03-30T19:07:51.827Z,3.40
2018-03-30T19:10:22.602Z,3.80
2018-03-30T19:12:53.375Z,3.23
2018-03-30T19:15:24.141Z,3.20
2018-03-30T19:17:54.924Z,2.93
2018-03-30T19:20:25.685Z,3.33
2018-03-30T19:22:56.476Z,2.83
2018-03-30T19:25:27.246Z,3.43
2018-03-30T19:27:58.030Z,3.07
2018-03-30T19:30:28.801Z,3.30
2018-03-30T19:32:59.613Z,3.33
2018-03-30T19:35:30.409Z,3.50
2018-03-30T19:38:01.161Z,3.30
2018-03-30T19:40:31.903Z,3.30
2018-03-30T19:43:02.684Z,3.30
2018-03-30T19:45:33.434Z,3.27
2018-03-30T19:48:04.214Z,3.13
2018-03-30T19:50:34.961Z,3.20
2018-03-30T19:53:05.744Z,3.00
2018-03-30T19:55:36.521Z,3.00
2018-03-30T19:58:14.215Z,2.83
2018-03-30T20:00:44.991Z,2.50
2018-03-30T20:03:15.789Z,2.93
2018-03-30T20:05:46.589Z,2.40
2018-03-30T20:08:17.361Z,3.07
2018-03-30T20:10:48.129Z,2.80
2018-03-30T20:13:18.888Z,3.03
2018-03-30T20:15:49.632Z,3.10
2018-03-30T20:18:20.412Z,3.23
2018-03-30T20:20:51.177Z,3.00
2018-03-30T20:23:21.982Z,3.37
2018-03-30T20:25:52.762Z,3.50
2018-03-30T20:28:23.566Z,3.73
2018-03-30T20:30:54.354Z,3.50
2018-03-30T20:33:25.138Z,2.83
2018-03-30T20:35:55.908Z,3.70
2018-03-30T20:38:26.651Z,3.30
2018-03-30T20:40:57.421Z,3.30
2018-03-30T20:43:28.172Z,3.37
2018-03-30T20:45:58.925Z,3.77
2018-03-30T20:48:29.673Z,3.70
2018-03-30T20:51:00.440Z,3.60
2018-03-30T20:53:31.237Z,4.00
2018-03-30T20:56:02.034Z,4.17
2018-03-30T20:58:32.882Z,5.27
2018-03-30T21:01:03.664Z,4.27
2018-03-30T21:03:34.453Z,5.50
2018-03-30T21:06:05.229Z,4.20
2018-03-30T21:08:36.029Z,4.17
2018-03-30T21:11:06.803Z,4.00
2018-03-30T21:13:37.593Z,3.90
2018-03-30T21:16:08.355Z,4.17
2018-03-30T21:18:39.144Z,3.83
2018-03-30T21:21:09.896Z,4.20
2018-03-30T21:23:40.663Z,4.67
2018-03-30T21:26:11.424Z,4.73
2018-03-30T21:28:42.225Z,4.70
2018-03-30T21:31:13.022Z,4.33
2018-03-30T21:33:43.800Z,3.97
2018-03-30T21:36:14.581Z,4.10
2018-03-30T21:38:45.318Z,4.43
2018-03-30T21:41:16.095Z,4.60
2018-03-30T21:43:46.846Z,4.40
2018-03-30T21:46:17.627Z,4.70
2018-03-30T21:48:48.382Z,5.77
2018-03-30T21:51:19.161Z,5.33
2018-03-30T21:53:49.941Z,4.63
2018-03-30T21:56:20.719Z,4.90
2018-03-30T21:58:51.493Z,4.80
2018-03-30T22:01:22.233Z,5.17
2018-03-30T22:03:53.021Z,4.93
2018-03-30T22:06:23.763Z,5.00
2018-03-30T22:08:54.520Z,5.10
2018-03-30T22:11:25.295Z,5.10
2018-03-30T22:13:56.060Z,5.50
2018-03-30T22:16:26.850Z,5.33
2018-03-30T22:18:57.616Z,6.53
2018-03-30T22:21:28.409Z,6.60
2018-03-30T22:23:59.199Z,5.70
2018-03-30T22:26:29.985Z,6.27
2018-03-30T22:29:00.787Z,5.80
2018-03-30T22:31:31.554Z,6.40
2018-03-30T22:34:02.305Z,7.00
2018-03-30T22:36:33.043Z,7.50
2018-03-30T22:39:03.854Z,7.43
2018-03-30T22:41:34.619Z,6.47
2018-03-30T22:44:05.416Z,6.13
2018-03-30T22:46:36.169Z,5.70
2018-03-30T22:49:06.927Z,5.47
2018-03-30T22:51:37.716Z,5.73
2018-03-30T22:54:08.509Z,5.67
2018-03-30T22:56:39.261Z,6.00
2018-03-30T22:59:10.067Z,6.20
2018-03-30T23:01:40.845Z,5.90
2018-03-30T23:04:11.587Z,6.70
2018-03-30T23:06:42.423Z,6.33
2018-03-30T23:09:13.153Z,6.60
2018-03-30T23:11:43.953Z,6.20
2018-03-30T23:14:14.730Z,5.90
2018-03-30T23:16:45.518Z,5.80
2018-03-30T23:19:16.263Z,5.97
2018-03-30T23:21:47.019Z,6.10
2018-03-30T23:24:17.796Z,6.50
2018-03-30T23:26:48.589Z,6.27
2018-03-30T23:29:19.350Z,5.80
2018-03-30T23:31:50.148Z,6.47
2018-03-30T23:34:20.929Z,7.63
2018-03-30T23:36:51.707Z,9.03
2018-03-30T23:39:22.478Z,9.10
2018-03-30T23:41:53.236Z,10.00
2018-03-30T23:44:24.022Z,10.73
2018-03-30T23:46:54.822Z,12.33
2018-03-30T23:49:25.632Z,12.20
2018-03-30T23:51:56.418Z,11.57
2018-03-30T23:54:27.179Z,11.07
2018-03-30T23:56:57.984Z,10.57
2018-03-30T23:59:28.765Z,10.07
